Time;durP1;ratioP1;P1;durP2;ratioP2;P2;SDS_P1;SDS_P2;PMS_P1;PMS_P2;Temp;Humidity;BMP_temperature;BMP_pressure;BME280_temperature;BME280_humidity;BME280_pressure;Samples;Min_cycle;Max_cycle;Signal;HPM_P1;HPM_P2
2023/07/27 00:00:09;;;;;;;1.80;1.30;;;24.90;49.90;;;;;;4974430;28;20519;-69
2023/07/27 00:02:35;;;;;;;1.87;1.30;;;24.90;49.90;;;;;;4974499;28;20185;-69
2023/07/27 00:05:02;;;;;;;1.70;1.30;;;24.90;49.90;;;;;;4974621;28;20420;-69
2023/07/27 00:07:27;;;;;;;1.60;1.27;;;24.90;49.90;;;;;;4974308;28;21133;-70
2023/07/27 00:09:53;;;;;;;2.57;1.70;;;24.90;49.90;;;;;;4974105;28;20437;-69
2023/07/27 00:12:19;;;;;;;1.53;1.30;;;24.90;49.90;;;;;;4974238;28;20196;-69
2023/07/27 00:14:45;;;;;;;1.73;1.50;;;24.90;49.90;;;;;;4973486;28;20177;-70
2023/07/27 00:17:10;;;;;;;2.00;1.20;;;24.90;49.90;;;;;;4974278;28;20409;-70
2023/07/27 00:19:36;;;;;;;1.50;1.20;;;24.90;49.90;;;;;;4974061;28;20694;-69
2023/07/27 00:22:01;;;;;;;1.50;1.30;;;24.90;49.90;;;;;;4974112;28;20182;-69
2023/07/27 00:24:27;;;;;;;1.40;1.17;;;24.90;49.90;;;;;;4956638;28;20283;-70
2023/07/27 00:26:53;;;;;;;1.60;1.23;;;24.90;49.90;;;;;;4974044;28;20185;-69
2023/07/27 00:29:19;;;;;;;1.53;1.40;;;24.90;49.90;;;;;;4974184;28;20208;-69
2023/07/27 00:31:44;;;;;;;2.20;1.60;;;24.90;49.90;;;;;;4973682;28;20559;-70
2023/07/27 00:34:10;;;;;;;1.67;1.20;;;24.90;49.90;;;;;;4973846;28;20417;-70
2023/07/27 00:36:35;;;;;;;1.33;1.23;;;24.90;49.90;;;;;;4973851;28;20178;-70
2023/07/27 00:39:01;;;;;;;1.60;1.27;;;24.90;49.90;;;;;;4973628;28;20173;-70
2023/07/27 00:41:27;;;;;;;1.60;1.20;;;24.90;49.90;;;;;;4973706;28;20201;-70
2023/07/27 00:43:52;;;;;;;2.00;1.20;;;24.90;49.90;;;;;;4973733;28;20261;-70
2023/07/27 00:46:18;;;;;;;1.67;1.30;;;24.90;49.90;;;;;;4973799;28;20197;-69
2023/07/27 00:48:44;;;;;;;1.50;1.27;;;24.90;49.90;;;;;;4973730;28;20551;-69
2023/07/27 00:51:11;;;;;;;1.53;1.43;;;24.90;49.90;;;;;;4973791;28;20606;-69
2023/07/27 00:53:37;;;;;;;2.30;1.70;;;24.90;49.90;;;;;;4973605;28;20417;-69
2023/07/27 00:56:03;;;;;;;1.70;1.30;;;24.90;49.90;;;;;;4974230;28;20501;-69
2023/07/27 00:58:29;;;;;;;1.67;1.50;;;24.90;49.90;;;;;;4973633;28;20428;-69
2023/07/27 01:00:54;;;;;;;1.23;1.07;;;24.90;49.90;;;;;;4973513;28;20464;-69
2023/07/27 01:03:20;;;;;;;1.57;1.27;;;24.90;49.90;;;;;;4956019;28;20174;-70
2023/07/27 01:05:48;;;;;;;1.93;1.50;;;24.90;49.90;;;;;;4956247;28;20181;-70
2023/07/27 01:08:13;;;;;;;1.70;1.30;;;24.90;50.00;;;;;;4973453;28;20272;-69
2023/07/27 01:10:47;;;;;;;1.83;1.50;;;24.90;50.00;;;;;;4973386;28;20488;-70
2023/07/27 01:13:27;;;;;;;2.63;1.80;;;24.90;50.00;;;;;;4973662;28;20264;-69
2023/07/27 01:15:59;;;;;;;2.30;1.70;;;24.90;50.00;;;;;;4973575;28;20394;-69
2023/07/27 01:18:32;;;;;;;1.60;1.40;;;24.90;50.00;;;;;;4973554;28;20397;-70
2023/07/27 01:21:31;;;;;;;2.17;1.70;;;24.90;50.50;;;;;;4973269;28;20467;-69
2023/07/27 01:24:29;;;;;;;1.47;1.30;;;24.90;50.00;;;;;;4973394;28;20509;-70
2023/07/27 01:27:15;;;;;;;3.83;1.50;;;24.90;50.00;;;;;;4907779;28;20432;-69
2023/07/27 01:30:15;;;;;;;3.70;1.40;;;24.90;50.00;;;;;;4977245;28;20460;-69
2023/07/27 01:32:43;;;;;;;2.43;1.80;;;24.80;50.00;;;;;;4963286;28;20882;-70
2023/07/27 01:35:12;;;;;;;1.70;1.33;;;24.80;50.00;;;;;;4977104;28;20913;-69
2023/07/27 01:37:41;;;;;;;1.60;1.30;;;24.80;50.00;;;;;;4977149;28;20810;-69
2023/07/27 01:40:09;;;;;;;1.60;1.40;;;24.80;50.00;;;;;;4977182;28;20899;-69
2023/07/27 01:42:35;;;;;;;1.67;1.50;;;24.80;50.00;;;;;;4959591;28;20420;-69
2023/07/27 01:45:02;;;;;;;1.33;1.20;;;24.80;50.00;;;;;;4977089;28;20413;-69
2023/07/27 01:47:29;;;;;;;2.33;1.60;;;24.90;50.00;;;;;;4976972;28;20458;-70
2023/07/27 01:49:56;;;;;;;1.50;1.40;;;24.90;50.00;;;;;;4959462;28;20532;-69
2023/07/27 01:52:22;;;;;;;2.10;1.53;;;24.90;50.00;;;;;;4976788;28;20421;-69
2023/07/27 01:54:49;;;;;;;2.20;1.40;;;24.90;50.00;;;;;;4976869;28;20428;-69
2023/07/27 01:57:16;;;;;;;1.83;1.43;;;24.90;50.00;;;;;;4976981;28;20417;-68
2023/07/27 01:59:42;;;;;;;1.47;1.37;;;24.90;50.00;;;;;;4976577;28;20471;-70
2023/07/27 02:02:08;;;;;;;1.80;1.30;;;24.90;50.00;;;;;;4976682;28;20791;-69
2023/07/27 02:04:34;;;;;;;1.43;1.33;;;24.80;49.90;;;;;;4976602;28;20416;-70
2023/07/27 02:07:00;;;;;;;1.50;1.33;;;24.90;50.00;;;;;;4976819;28;20177;-69
2023/07/27 02:09:25;;;;;;;2.10;1.50;;;24.90;50.00;;;;;;4976532;28;20452;-69
2023/07/27 02:12:00;;;;;;;1.70;1.40;;;24.90;50.00;;;;;;4976590;28;20177;-69
2023/07/27 02:14:38;;;;;;;1.87;1.47;;;24.90;50.00;;;;;;4976492;28;20157;-69
2023/07/27 02:17:20;;;;;;;1.40;1.17;;;24.90;50.00;;;;;;4976332;28;20405;-69
2023/07/27 02:19:53;;;;;;;2.20;1.60;;;24.90;50.00;;;;;;4976203;28;20993;-70
2023/07/27 02:22:21;;;;;;;2.07;1.30;;;24.90;50.00;;;;;;4976331;28;20523;-69
2023/07/27 02:24:47;;;;;;;1.47;1.20;;;24.90;50.00;;;;;;4974960;28;20425;-68
2023/07/27 02:27:13;;;;;;;1.83;1.50;;;24.80;50.00;;;;;;4976158;28;20957;-69
2023/07/27 02:29:40;;;;;;;2.10;1.67;;;24.80;49.90;;;;;;4976336;28;20244;-69
2023/07/27 02:32:07;;;;;;;1.50;1.30;;;24.90;50.00;;;;;;4976003;28;20217;-70
2023/07/27 02:34:33;;;;;;;2.27;1.33;;;24.80;49.90;;;;;;4975985;28;20409;-69
2023/07/27 02:36:58;;;;;;;1.60;1.40;;;24.90;50.00;;;;;;4975311;28;20417;-70
2023/07/27 02:39:24;;;;;;;1.20;1.07;;;24.80;50.00;;;;;;4976099;28;20193;-69
2023/07/27 02:41:49;;;;;;;2.00;1.60;;;24.90;50.00;;;;;;4975983;28;20611;-69
2023/07/27 02:44:15;;;;;;;1.60;1.27;;;24.80;50.00;;;;;;4975844;28;20228;-69
2023/07/27 02:46:40;;;;;;;1.67;1.43;;;24.80;50.00;;;;;;4976028;28;20179;-70
2023/07/27 02:49:06;;;;;;;1.70;1.40;;;24.80;50.00;;;;;;4975635;28;20173;-70
2023/07/27 02:51:31;;;;;;;3.03;1.50;;;24.80;50.00;;;;;;4975668;28;20181;-70
2023/07/27 02:53:57;;;;;;;1.40;1.30;;;24.80;50.00;;;;;;4975711;28;20188;-69
2023/07/27 02:56:24;;;;;;;1.50;1.27;;;24.80;50.00;;;;;;4958270;28;20227;-69
2023/07/27 02:58:49;;;;;;;1.93;1.53;;;24.80;50.00;;;;;;4958220;28;20192;-69
2023/07/27 03:01:15;;;;;;;1.73;1.30;;;24.80;50.00;;;;;;4958049;28;20465;-70
2023/07/27 03:03:41;;;;;;;2.20;1.30;;;24.80;50.00;;;;;;4975422;28;20177;-69
2023/07/27 03:06:06;;;;;;;2.20;1.67;;;24.80;50.00;;;;;;4975477;28;20189;-69
2023/07/27 03:08:32;;;;;;;1.90;1.60;;;24.80;50.00;;;;;;4975570;28;20200;-70
2023/07/27 03:11:02;;;;;;;2.20;1.93;;;24.80;50.00;;;;;;4975147;28;20202;-70
2023/07/27 03:13:28;;;;;;;1.33;1.20;;;24.80;50.00;;;;;;4975422;28;20544;-69
2023/07/27 03:15:55;;;;;;;2.13;1.53;;;24.80;50.00;;;;;;4975392;28;20974;-70
2023/07/27 03:18:21;;;;;;;1.43;1.30;;;24.80;50.00;;;;;;4957682;28;20212;-69
2023/07/27 03:20:46;;;;;;;2.10;1.43;;;24.80;50.00;;;;;;4974840;28;20460;-69
2023/07/27 03:23:12;;;;;;;1.80;1.67;;;24.80;50.00;;;;;;4975235;28;20421;-69
2023/07/27 03:25:38;;;;;;;1.70;1.40;;;24.80;50.00;;;;;;4974959;28;20520;-69
2023/07/27 03:28:06;;;;;;;2.33;1.57;;;24.80;50.00;;;;;;4974997;28;20249;-69
2023/07/27 03:30:32;;;;;;;3.00;2.00;;;24.80;50.00;;;;;;4974717;28;20467;-69
2023/07/27 03:32:58;;;;;;;1.83;1.47;;;24.80;50.00;;;;;;4974781;28;20434;-68
2023/07/27 03:35:23;;;;;;;2.10;1.67;;;24.80;50.00;;;;;;4974876;28;20452;-70
2023/07/27 03:37:52;;;;;;;2.97;2.10;;;24.80;50.00;;;;;;4974714;28;20182;-69
2023/07/27 03:40:19;;;;;;;2.77;1.80;;;24.80;50.00;;;;;;4957219;28;20280;-69
2023/07/27 03:42:45;;;;;;;1.80;1.70;;;24.80;50.00;;;;;;4974545;28;20405;-69
2023/07/27 03:45:11;;;;;;;1.93;1.50;;;24.80;50.00;;;;;;4974587;28;20440;-69
2023/07/27 03:47:37;;;;;;;1.63;1.50;;;24.80;50.00;;;;;;4974384;28;20213;-69
2023/07/27 03:50:03;;;;;;;1.50;1.20;;;24.80;50.00;;;;;;4974310;28;20437;-69
2023/07/27 03:52:28;;;;;;;1.87;1.50;;;24.80;50.00;;;;;;4974408;28;20205;-68
2023/07/27 03:54:54;;;;;;;1.77;1.40;;;24.80;50.00;;;;;;4974282;28;20264;-69
2023/07/27 03:57:19;;;;;;;1.83;1.60;;;24.80;50.00;;;;;;4974429;28;20189;-68
2023/07/27 03:59:45;;;;;;;1.53;1.37;;;24.80;50.00;;;;;;4974112;28;20248;-69
2023/07/27 04:02:10;;;;;;;1.60;1.40;;;24.80;50.00;;;;;;4974179;28;20186;-69
2023/07/27 04:04:36;;;;;;;1.40;1.30;;;24.80;50.00;;;;;;4974134;28;20662;-68
2023/07/27 04:07:02;;;;;;;1.97;1.53;;;24.80;50.00;;;;;;4974411;28;20185;-68
2023/07/27 04:09:27;;;;;;;1.70;1.33;;;24.80;50.00;;;;;;4974101;28;20196;-68
2023/07/27 04:11:53;;;;;;;2.40;1.57;;;24.70;49.90;;;;;;4974448;28;20663;-69
2023/07/27 04:14:18;;;;;;;1.53;1.43;;;24.70;49.90;;;;;;4974004;28;20623;-69
2023/07/27 04:16:44;;;;;;;1.80;1.70;;;24.80;50.00;;;;;;4973966;28;20612;-69
2023/07/27 04:19:11;;;;;;;1.93;1.63;;;24.70;49.90;;;;;;4973867;28;20182;-69
2023/07/27 04:21:36;;;;;;;2.07;1.57;;;24.70;50.50;;;;;;4973840;28;20194;-68
2023/07/27 04:24:02;;;;;;;2.23;1.30;;;24.70;50.00;;;;;;4973569;28;20413;-68
2023/07/27 04:26:29;;;;;;;2.20;1.30;;;24.70;50.00;;;;;;4973868;28;20595;-68
2023/07/27 04:28:54;;;;;;;1.40;1.30;;;24.80;50.00;;;;;;4973702;28;20208;-69
2023/07/27 04:31:20;;;;;;;1.50;1.40;;;24.70;50.00;;;;;;4973702;28;20437;-69
2023/07/27 04:33:45;;;;;;;2.00;1.80;;;24.70;50.00;;;;;;4972367;28;20500;-69
2023/07/27 04:36:11;;;;;;;1.87;1.50;;;24.70;50.00;;;;;;4956637;28;20184;-69
2023/07/27 04:38:38;;;;;;;2.63;1.97;;;24.70;49.90;;;;;;4973568;28;20236;-70
2023/07/27 04:41:03;;;;;;;2.43;1.90;;;24.70;49.90;;;;;;4972526;28;20202;-69
2023/07/27 04:43:29;;;;;;;2.60;2.23;;;24.70;49.90;;;;;;4973249;28;20780;-67
2023/07/27 04:45:55;;;;;;;2.43;2.23;;;24.70;49.90;;;;;;4973582;28;20205;-69
2023/07/27 04:48:20;;;;;;;2.87;1.93;;;24.70;49.90;;;;;;4973547;28;20257;-70
2023/07/27 04:50:47;;;;;;;2.60;2.00;;;24.70;49.90;;;;;;4973629;28;20209;-68
2023/07/27 04:53:12;;;;;;;2.43;1.90;;;24.70;49.90;;;;;;4973547;28;20181;-69
2023/07/27 04:55:38;;;;;;;3.47;2.27;;;24.70;49.90;;;;;;4973337;28;20424;-69
2023/07/27 04:58:04;;;;;;;2.97;1.90;;;24.70;49.90;;;;;;4973432;28;20186;-68
2023/07/27 05:00:30;;;;;;;3.67;2.00;;;24.70;49.90;;;;;;4955431;28;20205;-68
2023/07/27 05:02:58;;;;;;;2.97;2.10;;;24.70;49.80;;;;;;4972856;28;20182;-69
2023/07/27 05:05:24;;;;;;;2.20;2.00;;;24.70;49.90;;;;;;4973111;28;20428;-69
2023/07/27 05:07:49;;;;;;;2.00;1.80;;;24.70;49.80;;;;;;4973299;28;20409;-68
2023/07/27 05:10:15;;;;;;;4.17;2.60;;;24.70;49.80;;;;;;4973060;28;20201;-68
2023/07/27 05:12:40;;;;;;;2.17;1.90;;;24.70;49.80;;;;;;4973135;28;20220;-68
2023/07/27 05:15:06;;;;;;;2.90;2.50;;;24.70;49.80;;;;;;4973029;28;20178;-68
2023/07/27 05:17:33;;;;;;;2.30;1.90;;;24.70;49.80;;;;;;4971903;28;20185;-68
2023/07/27 05:20:00;;;;;;;3.30;2.37;;;24.70;49.80;;;;;;4972922;28;20452;-68
2023/07/27 05:22:26;;;;;;;2.83;2.10;;;24.70;49.80;;;;;;4973046;28;20512;-68
2023/07/27 05:24:51;;;;;;;1.80;1.70;;;24.70;49.80;;;;;;4973042;28;20495;-68
2023/07/27 05:27:17;;;;;;;2.27;1.73;;;24.70;49.80;;;;;;4973047;28;20177;-68
2023/07/27 05:29:42;;;;;;;3.20;2.60;;;24.70;49.80;;;;;;4972938;28;20197;-67
2023/07/27 05:32:08;;;;;;;3.27;2.47;;;24.70;49.80;;;;;;4972927;28;20181;-69
2023/07/27 05:34:34;;;;;;;2.77;2.50;;;24.70;49.80;;;;;;4972990;28;20216;-68
2023/07/27 05:37:00;;;;;;;2.43;2.23;;;24.70;49.80;;;;;;4972692;28;20170;-68
2023/07/27 05:39:28;;;;;;;2.10;1.87;;;24.70;49.80;;;;;;4972798;28;20806;-68
2023/07/27 05:41:54;;;;;;;2.30;2.10;;;24.70;49.80;;;;;;4973080;28;20536;-68
2023/07/27 05:44:21;;;;;;;3.90;2.10;;;24.60;49.70;;;;;;4972878;28;20512;-68
2023/07/27 05:46:46;;;;;;;2.50;2.20;;;24.60;49.70;;;;;;4972837;28;20177;-69
2023/07/27 05:49:12;;;;;;;2.10;1.90;;;24.60;49.80;;;;;;4973001;28;20471;-68
2023/07/27 05:51:38;;;;;;;2.90;2.00;;;24.60;49.80;;;;;;4955336;28;20182;-68
2023/07/27 05:54:04;;;;;;;2.90;2.20;;;24.60;49.70;;;;;;4971641;28;20170;-68
2023/07/27 05:56:29;;;;;;;2.13;1.87;;;24.60;50.30;;;;;;4973051;28;20178;-68
2023/07/27 05:58:55;;;;;;;2.07;1.80;;;24.60;49.80;;;;;;4972629;28;20944;-68
2023/07/27 06:01:20;;;;;;;3.50;2.23;;;24.60;49.80;;;;;;4971457;28;20288;-68
2023/07/27 06:03:46;;;;;;;2.67;2.10;;;24.60;49.80;;;;;;4972708;28;20189;-68
2023/07/27 06:06:12;;;;;;;2.37;2.17;;;24.60;49.80;;;;;;4972732;28;20604;-68
2023/07/27 06:08:37;;;;;;;2.70;2.17;;;24.60;49.80;;;;;;4972680;28;20174;-68
2023/07/27 06:11:09;;;;;;;3.00;2.00;;;24.60;49.80;;;;;;4972554;28;20574;-69
2023/07/27 06:13:35;;;;;;;3.40;2.17;;;24.60;50.30;;;;;;4975697;28;20186;-68
2023/07/27 06:16:01;;;;;;;2.67;2.27;;;24.60;49.80;;;;;;4976168;28;20413;-69
2023/07/27 06:18:27;;;;;;;2.20;2.00;;;24.60;49.80;;;;;;4976081;28;20417;-67
2023/07/27 06:20:53;;;;;;;2.60;2.20;;;24.60;49.80;;;;;;4958435;28;20214;-68
2023/07/27 06:23:18;;;;;;;1.90;1.60;;;24.60;49.80;;;;;;4975973;28;20499;-68
2023/07/27 06:25:45;;;;;;;3.23;2.70;;;24.60;49.70;;;;;;4976409;28;20613;-68
2023/07/27 06:28:11;;;;;;;2.90;2.10;;;24.60;49.80;;;;;;4976012;28;20182;-68
2023/07/27 06:30:38;;;;;;;2.30;2.10;;;24.60;49.80;;;;;;4975796;28;20460;-69
2023/07/27 06:33:05;;;;;;;2.37;2.17;;;24.60;49.80;;;;;;4975876;28;20428;-68
2023/07/27 06:35:32;;;;;;;2.47;2.27;;;24.60;49.70;;;;;;4975859;28;20786;-67
2023/07/27 06:37:58;;;;;;;3.50;2.30;;;24.60;49.70;;;;;;4975718;28;20413;-68
2023/07/27 06:40:25;;;;;;;2.77;1.90;;;24.60;49.70;;;;;;4975709;28;20501;-66
2023/07/27 06:42:50;;;;;;;2.80;2.20;;;24.60;49.70;;;;;;4975605;28;20780;-69
2023/07/27 06:45:16;;;;;;;2.43;2.13;;;24.60;49.70;;;;;;4975612;28;20421;-68
2023/07/27 06:47:42;;;;;;;2.63;2.23;;;24.60;49.80;;;;;;4975520;28;20205;-68
2023/07/27 06:50:08;;;;;;;2.93;2.47;;;24.60;49.70;;;;;;4975649;28;20236;-68
2023/07/27 06:52:33;;;;;;;3.53;2.10;;;24.60;49.70;;;;;;4974528;28;20181;-67
2023/07/27 06:54:59;;;;;;;2.43;2.17;;;24.60;49.80;;;;;;4975388;28;20409;-68
2023/07/27 06:57:25;;;;;;;2.20;2.00;;;24.60;49.70;;;;;;4975312;28;20178;-68
2023/07/27 06:59:51;;;;;;;2.43;1.73;;;24.60;49.80;;;;;;4975201;28;20224;-69
2023/07/27 07:02:16;;;;;;;4.00;1.97;;;24.60;49.80;;;;;;4975286;28;20413;-68
2023/07/27 07:04:43;;;;;;;3.33;2.40;;;24.60;49.80;;;;;;4975164;28;20702;-68
2023/07/27 07:07:09;;;;;;;2.50;1.97;;;24.60;49.80;;;;;;4975225;28;20172;-68
2023/07/27 07:09:35;;;;;;;2.50;2.20;;;24.60;49.80;;;;;;4975026;28;20876;-68
2023/07/27 07:12:03;;;;;;;2.57;2.20;;;24.60;49.80;;;;;;4957673;28;20412;-68
2023/07/27 07:14:29;;;;;;;2.40;2.10;;;24.60;49.80;;;;;;4975019;28;20184;-68
2023/07/27 07:16:54;;;;;;;2.50;2.07;;;24.60;49.80;;;;;;4975256;28;20405;-68
2023/07/27 07:19:20;;;;;;;2.50;2.00;;;24.60;49.80;;;;;;4975107;28;20200;-67
2023/07/27 07:21:46;;;;;;;3.50;2.20;;;24.60;49.80;;;;;;4975056;28;20201;-69
2023/07/27 07:24:11;;;;;;;2.00;1.80;;;24.60;49.80;;;;;;4974666;28;20224;-68
2023/07/27 07:26:37;;;;;;;2.50;2.10;;;24.60;49.80;;;;;;4975069;28;20660;-68
2023/07/27 07:29:02;;;;;;;1.80;1.70;;;24.60;49.90;;;;;;4974989;28;20248;-68
2023/07/27 07:31:30;;;;;;;2.60;2.20;;;24.60;49.90;;;;;;4974975;28;20746;-69
2023/07/27 07:33:56;;;;;;;2.00;1.80;;;24.60;49.90;;;;;;4974853;28;20174;-68
2023/07/27 07:36:22;;;;;;;2.10;1.83;;;24.60;49.90;;;;;;4974848;28;20417;-68
2023/07/27 07:38:47;;;;;;;2.60;2.20;;;24.60;49.90;;;;;;4974673;28;20170;-69
2023/07/27 07:41:13;;;;;;;2.23;2.00;;;24.60;49.90;;;;;;4974499;28;20449;-68
2023/07/27 07:43:39;;;;;;;2.07;1.80;;;24.60;49.90;;;;;;4974615;28;20730;-68
2023/07/27 07:46:09;;;;;;;2.10;1.77;;;24.60;49.90;;;;;;4974534;28;20174;-68
2023/07/27 07:48:34;;;;;;;2.30;2.10;;;24.60;49.90;;;;;;4974520;28;20177;-68
2023/07/27 07:51:00;;;;;;;2.23;2.03;;;24.60;49.90;;;;;;4974450;28;20433;-68
2023/07/27 07:53:26;;;;;;;2.43;2.07;;;24.60;49.90;;;;;;4957024;28;20747;-68
2023/07/27 07:55:51;;;;;;;2.63;1.70;;;24.60;49.90;;;;;;4974605;28;20195;-69
2023/07/27 07:58:17;;;;;;;2.53;2.30;;;24.60;49.90;;;;;;4957108;28;20177;-68
2023/07/27 08:00:42;;;;;;;2.70;2.27;;;24.60;49.90;;;;;;4974375;28;20208;-68
2023/07/27 08:03:08;;;;;;;2.10;1.80;;;24.60;49.90;;;;;;4974242;28;20264;-68
2023/07/27 08:05:34;;;;;;;2.13;1.93;;;24.60;49.90;;;;;;4974254;28;20173;-68
2023/07/27 08:08:01;;;;;;;2.20;1.93;;;24.60;49.90;;;;;;4974130;28;20189;-68
2023/07/27 08:10:27;;;;;;;2.23;1.80;;;24.60;49.90;;;;;;4973940;28;20529;-68
2023/07/27 08:12:53;;;;;;;2.53;1.80;;;24.60;49.90;;;;;;4973953;28;20503;-68
2023/07/27 08:15:19;;;;;;;2.53;2.20;;;24.60;49.90;;;;;;4973986;28;20173;-68
2023/07/27 08:17:44;;;;;;;2.20;1.90;;;24.60;49.90;;;;;;4973968;28;20767;-69
2023/07/27 08:20:10;;;;;;;2.23;2.03;;;24.60;49.90;;;;;;4973771;28;20201;-69
2023/07/27 08:22:36;;;;;;;2.13;1.93;;;24.60;49.90;;;;;;4974256;28;20273;-68
2023/07/27 08:25:04;;;;;;;3.20;2.10;;;24.60;49.90;;;;;;4973952;28;20209;-69
2023/07/27 08:27:32;;;;;;;2.10;1.90;;;24.60;49.90;;;;;;4972845;28;20630;-68
2023/07/27 08:29:58;;;;;;;2.50;1.90;;;24.60;49.90;;;;;;4973772;28;20926;-69
2023/07/27 08:32:23;;;;;;;2.30;1.83;;;24.60;49.90;;;;;;4973671;28;20433;-67
2023/07/27 08:34:49;;;;;;;2.03;1.70;;;24.60;49.90;;;;;;4955710;28;20644;-69
2023/07/27 08:37:14;;;;;;;1.93;1.73;;;24.60;49.90;;;;;;4973605;28;20256;-68
2023/07/27 08:39:40;;;;;;;2.50;2.07;;;24.60;50.00;;;;;;4973540;28;20197;-67
2023/07/27 08:42:05;;;;;;;2.43;1.90;;;24.60;50.00;;;;;;4973585;28;20641;-68
2023/07/27 08:44:32;;;;;;;1.97;1.70;;;24.60;50.00;;;;;;4973859;28;20189;-68
2023/07/27 08:47:02;;;;;;;2.37;1.90;;;24.60;50.00;;;;;;4973564;28;20639;-67
2023/07/27 08:49:29;;;;;;;2.00;1.80;;;24.60;50.00;;;;;;4973407;28;20429;-68
2023/07/27 08:51:54;;;;;;;1.70;1.50;;;24.60;50.00;;;;;;4973339;28;20445;-68
2023/07/27 08:54:21;;;;;;;1.70;1.50;;;24.60;50.00;;;;;;4973734;28;20445;-68
2023/07/27 08:56:48;;;;;;;2.33;1.70;;;24.60;50.10;;;;;;4956212;28;20181;-69
2023/07/27 08:59:13;;;;;;;2.23;1.70;;;24.60;50.00;;;;;;4973395;28;20504;-68
2023/07/27 09:01:39;;;;;;;2.33;2.03;;;24.60;50.00;;;;;;4973239;28;21042;-69
2023/07/27 09:04:06;;;;;;;1.70;1.60;;;24.60;50.00;;;;;;4973808;28;20544;-69
2023/07/27 09:06:44;;;;;;;1.70;1.50;;;24.60;50.00;;;;;;4973403;28;20261;-70
2023/07/27 09:09:21;;;;;;;2.53;1.80;;;24.60;50.00;;;;;;4955983;28;20409;-69
2023/07/27 09:11:47;;;;;;;2.13;1.67;;;24.60;50.00;;;;;;4972548;28;20400;-69
2023/07/27 09:14:18;;;;;;;2.17;1.90;;;24.60;50.10;;;;;;4973419;28;20409;-69
2023/07/27 09:16:45;;;;;;;2.27;2.00;;;24.60;50.00;;;;;;4973484;28;20246;-69
2023/07/27 09:19:12;;;;;;;2.10;1.77;;;24.60;50.10;;;;;;4973520;28;20417;-70
2023/07/27 09:21:42;;;;;;;2.60;1.80;;;24.60;50.00;;;;;;4973052;28;20795;-69
2023/07/27 09:24:12;;;;;;;2.40;2.10;;;24.60;50.00;;;;;;4973459;28;20797;-70
2023/07/27 09:26:45;;;;;;;2.23;1.90;;;24.60;50.10;;;;;;4973284;28;20448;-68
2023/07/27 09:29:15;;;;;;;2.40;2.00;;;24.60;50.00;;;;;;4973247;28;20500;-70
2023/07/27 09:31:46;;;;;;;2.00;1.70;;;24.60;50.60;;;;;;4974499;28;20441;-69
2023/07/27 09:34:11;;;;;;;1.50;1.40;;;24.60;50.00;;;;;;4973382;28;20417;-69
2023/07/27 09:36:38;;;;;;;2.00;1.80;;;24.60;50.00;;;;;;4973064;28;21262;-69
2023/07/27 09:39:05;;;;;;;1.80;1.70;;;24.60;50.00;;;;;;4973126;28;20277;-67
2023/07/27 09:41:31;;;;;;;2.53;2.33;;;24.60;50.00;;;;;;4973441;28;20452;-69
2023/07/27 09:43:57;;;;;;;1.90;1.70;;;24.60;50.00;;;;;;4973208;28;20492;-69
2023/07/27 09:46:25;;;;;;;2.13;1.93;;;24.60;50.10;;;;;;4957253;28;20455;-69
2023/07/27 09:48:51;;;;;;;3.00;2.07;;;24.60;50.10;;;;;;4977159;28;20441;-68
2023/07/27 09:51:18;;;;;;;1.63;1.53;;;24.60;50.10;;;;;;4976745;28;20476;-68
2023/07/27 09:53:45;;;;;;;1.93;1.77;;;24.60;50.10;;;;;;4976731;28;20930;-69
2023/07/27 09:56:15;;;;;;;2.23;1.83;;;24.60;50.10;;;;;;4976698;28;20544;-68
2023/07/27 09:58:41;;;;;;;1.80;1.67;;;24.60;50.10;;;;;;4976839;28;20416;-68
2023/07/27 10:01:08;;;;;;;2.40;1.80;;;24.70;50.20;;;;;;4976480;28;20468;-68
2023/07/27 10:03:36;;;;;;;2.47;1.53;;;24.60;50.10;;;;;;4976798;28;20424;-69
2023/07/27 10:06:02;;;;;;;1.93;1.73;;;24.60;50.10;;;;;;4976725;28;20508;-68
2023/07/27 10:08:28;;;;;;;3.67;1.70;;;24.60;50.10;;;;;;4976858;28;20901;-68
2023/07/27 10:10:55;;;;;;;2.10;1.80;;;24.60;50.10;;;;;;4976327;28;20523;-68
2023/07/27 10:13:23;;;;;;;2.00;1.80;;;24.60;50.20;;;;;;4976700;28;20568;-69
2023/07/27 10:15:53;;;;;;;2.27;1.40;;;24.60;50.20;;;;;;4976669;28;20794;-69
2023/07/27 10:18:29;;;;;;;1.97;1.70;;;24.60;50.30;;;;;;4976392;28;20931;-67
2023/07/27 10:21:15;;;;;;;1.70;1.50;;;24.60;50.20;;;;;;4976250;28;20987;-70
2023/07/27 10:23:55;;;;;;;2.90;2.00;;;24.60;50.30;;;;;;4976295;28;20417;-69
2023/07/27 10:26:41;;;;;;;1.80;1.50;;;24.60;50.30;;;;;;4976296;28;20400;-69
2023/07/27 10:29:23;;;;;;;1.73;1.57;;;24.60;50.40;;;;;;4976124;28;20413;-69
2023/07/27 10:32:02;;;;;;;2.90;2.00;;;24.60;50.40;;;;;;4976102;28;20441;-69
2023/07/27 10:34:29;;;;;;;2.13;1.80;;;24.60;50.40;;;;;;4958831;28;20417;-69
2023/07/27 10:37:03;;;;;;;2.40;2.20;;;24.60;50.50;;;;;;4976362;28;20993;-69
2023/07/27 10:39:32;;;;;;;2.33;2.00;;;24.60;50.50;;;;;;4975975;28;20441;-69
2023/07/27 10:42:13;;;;;;;2.60;2.20;;;24.60;50.60;;;;;;4975788;28;20452;-69
2023/07/27 10:44:42;;;;;;;2.00;1.80;;;24.60;50.60;;;;;;4975947;28;20813;-69
2023/07/27 10:47:10;;;;;;;2.33;2.10;;;24.60;50.60;;;;;;4975949;28;20437;-69
2023/07/27 10:49:39;;;;;;;2.13;1.93;;;24.60;50.70;;;;;;4975731;28;20468;-69
2023/07/27 10:52:08;;;;;;;2.83;2.20;;;24.60;50.70;;;;;;4975945;28;20420;-69
2023/07/27 10:54:39;;;;;;;2.03;1.83;;;24.60;50.70;;;;;;4975873;28;20413;-69
2023/07/27 10:57:09;;;;;;;3.50;2.20;;;24.60;50.70;;;;;;4975612;28;20413;-68
2023/07/27 10:59:46;;;;;;;2.40;2.03;;;24.60;50.70;;;;;;4975223;28;20433;-69
2023/07/27 11:02:20;;;;;;;2.70;2.20;;;24.60;50.70;;;;;;4975692;28;20448;-69
2023/07/27 11:04:48;;;;;;;3.13;2.37;;;24.60;50.70;;;;;;4975497;28;20448;-69
2023/07/27 11:07:25;;;;;;;3.20;2.37;;;24.60;50.80;;;;;;4975466;28;20774;-69
2023/07/27 11:09:50;;;;;;;5.20;2.37;;;24.70;50.90;;;;;;4975624;28;20527;-68
2023/07/27 11:12:16;;;;;;;4.87;3.30;;;24.60;50.90;;;;;;4975427;28;20541;-69
2023/07/27 11:14:42;;;;;;;4.50;3.00;;;24.60;51.00;;;;;;4975568;28;20182;-69
2023/07/27 11:17:08;;;;;;;4.90;3.50;;;24.60;51.20;;;;;;4975475;28;20170;-69
2023/07/27 11:19:34;;;;;;;6.57;3.40;;;24.60;51.30;;;;;;4975221;28;20572;-69
2023/07/27 11:22:06;;;;;;;5.77;3.10;;;24.70;51.40;;;;;;4975254;28;20543;-68
2023/07/27 11:24:33;;;;;;;5.07;3.33;;;24.60;51.30;;;;;;4975009;28;21249;-69
2023/07/27 11:26:59;;;;;;;7.97;4.27;;;24.60;51.40;;;;;;4975168;28;20405;-69
2023/07/27 11:29:25;;;;;;;7.07;4.77;;;24.60;51.30;;;;;;4957664;28;20516;-70
2023/07/27 11:31:58;;;;;;;6.00;4.50;;;24.60;51.40;;;;;;4974958;28;20516;-69
2023/07/27 11:34:29;;;;;;;11.43;4.60;;;24.70;51.50;;;;;;4975053;28;20181;-68
2023/07/27 11:36:56;;;;;;;5.83;4.10;;;24.60;51.60;;;;;;4975171;28;20988;-69
2023/07/27 11:39:22;;;;;;;5.37;4.00;;;24.60;51.70;;;;;;4975088;28;20502;-69
2023/07/27 11:41:49;;;;;;;4.73;3.33;;;24.60;51.80;;;;;;4974830;28;21041;-68
2023/07/27 11:44:21;;;;;;;5.70;3.50;;;24.60;51.90;;;;;;4974879;28;20410;-67
2023/07/27 11:46:51;;;;;;;5.03;3.57;;;24.60;52.10;;;;;;4974964;28;20436;-69
2023/07/27 11:49:16;;;;;;;4.33;2.53;;;24.60;52.10;;;;;;4974719;28;20451;-68
2023/07/27 11:51:45;;;;;;;3.10;2.80;;;24.60;52.20;;;;;;4974651;28;20405;-69
2023/07/27 11:54:20;;;;;;;5.00;2.60;;;24.60;52.30;;;;;;4975038;28;20312;-68
2023/07/27 11:56:54;;;;;;;5.20;2.77;;;24.60;52.30;;;;;;4974552;28;20762;-68
2023/07/27 11:59:20;;;;;;;3.87;2.93;;;24.60;52.40;;;;;;4974353;28;20429;-68
2023/07/27 12:01:51;;;;;;;4.60;3.20;;;24.60;52.40;;;;;;4956796;28;20452;-68
2023/07/27 12:04:18;;;;;;;5.13;3.27;;;24.60;52.50;;;;;;4974694;28;20807;-68
2023/07/27 12:06:45;;;;;;;4.30;3.17;;;24.60;52.50;;;;;;4974346;28;20412;-67
2023/07/27 12:09:11;;;;;;;3.30;2.77;;;24.60;52.40;;;;;;4972246;28;20422;-68
2023/07/27 12:11:38;;;;;;;3.20;2.77;;;24.60;52.50;;;;;;4972832;28;20476;-67
2023/07/27 12:14:08;;;;;;;3.30;2.23;;;24.60;52.50;;;;;;4973892;28;20417;-70
2023/07/27 12:16:44;;;;;;;4.30;3.07;;;24.60;52.40;;;;;;4956082;28;20445;-68
2023/07/27 12:19:11;;;;;;;3.20;2.70;;;24.60;52.30;;;;;;4974145;28;20425;-69
2023/07/27 12:21:38;;;;;;;3.50;2.87;;;24.60;52.40;;;;;;4974136;28;20504;-68
2023/07/27 12:24:09;;;;;;;4.70;3.00;;;24.60;52.30;;;;;;4974361;28;20448;-69
2023/07/27 12:26:35;;;;;;;4.23;3.27;;;24.60;52.20;;;;;;4974441;28;20426;-68
2023/07/27 12:29:01;;;;;;;7.20;3.07;;;24.60;52.20;;;;;;4973966;28;20484;-69
2023/07/27 12:31:27;;;;;;;3.83;2.87;;;24.60;52.20;;;;;;4974117;28;20445;-67
2023/07/27 12:33:53;;;;;;;5.03;3.03;;;24.60;52.10;;;;;;4973822;28;20436;-69
2023/07/27 12:36:18;;;;;;;4.97;2.70;;;24.60;52.10;;;;;;4974021;28;20589;-69
2023/07/27 12:38:45;;;;;;;4.40;2.63;;;24.60;52.10;;;;;;4973915;28;20232;-69
2023/07/27 12:41:11;;;;;;;4.27;3.03;;;24.60;52.00;;;;;;4973676;28;20206;-69
2023/07/27 12:43:37;;;;;;;4.10;2.70;;;24.60;52.00;;;;;;4973861;28;20493;-68
2023/07/27 12:46:04;;;;;;;3.20;2.90;;;24.60;51.90;;;;;;4973888;28;20201;-68
2023/07/27 12:48:30;;;;;;;3.23;2.70;;;24.60;51.90;;;;;;4973888;28;20170;-69